X  Zamknij Lotniskowe dane METAR     LBPD Plovdiv International Airport
Temperatura
95°F Temperatura
55°F Punkt rosy
26% Wilgotność



Wiatr
9 MPH
14 KM/H
4 M/S
8 KTS



40°
NE
Warunki bieżące

Area Burza Area Burza
Ciśnienie 1012.87 (hPa) - 29.91 (inHg)
Widoczność 6 (mil) - 9.7 (km)
Lotnisko
Kod lotniska LBPD

Położenie: Plovdiv International Airport
Odległość: 14 (mi)

Metar:
LBPD 181800Z AUTO 04008KT 360V080 9999 VCTS //////CB 35/13 Q1013 TEMPO 5000 TSRA FEW030CB BKN050

Czas: 18-07-2024 21:00 EEST